Terminal Aerodrome Forecast
Issued by NWS Wichita, KS

Home | Current Version | Previous Version | Text Only | Print | Product List | Glossary On
Versions: 1 2 3 4 5 6 7 8 9 10 11 12 13 14 15 16 17 18 19 20 21 22 23 24 25
021
FTUS43 KICT 192207 AAB
TAFICT
TAF AMD
KICT 192207Z 1922/2018 35013KT 6SM -RA OVC060
     FM192300 35013KT P6SM OVC070
     FM200200 35009KT P6SM SCT070 OVC120=

USA.gov is the U.S. government's official web portal to all federal, state and local government web resources and services.